Time;durP1;ratioP1;P1;durP2;ratioP2;P2;SDS_P1;SDS_P2;PMS_P1;PMS_P2;Temp;Humidity;BMP_temperature;BMP_pressure;BME280_temperature;BME280_humidity;BME280_pressure;Samples;Min_cycle;Max_cycle;Signal;HPM_P1;HPM_P2
2022/03/14 00:00:26;;;;;;;118.65;62.75;;;;;;;-1.25;64.11;102779.08;1770110;80;21065;-81
2022/03/14 00:02:54;;;;;;;127.82;63.00;;;;;;;-1.28;64.10;102780.04;1769995;79;21072;-82
2022/03/14 00:05:21;;;;;;;123.62;61.92;;;;;;;-1.31;64.16;102787.10;1783585;79;21716;-82
2022/03/14 00:07:48;;;;;;;134.50;68.25;;;;;;;-1.34;64.18;102784.57;1772626;79;21062;-81
2022/03/14 00:10:16;;;;;;;121.77;62.35;;;;;;;-1.38;64.22;102789.40;1770632;79;21090;-82
2022/03/14 00:12:44;;;;;;;125.65;63.70;;;;;;;-1.41;64.28;102790.39;1749460;79;21428;-82
2022/03/14 00:15:14;;;;;;;127.00;62.08;;;;;;;-1.45;64.42;102788.20;1746151;80;21124;-82
2022/03/14 00:17:45;;;;;;;135.45;68.20;;;;;;;-1.47;64.48;102778.48;1746608;80;21752;-81
2022/03/14 00:20:13;;;;;;;149.07;71.07;;;;;;;-1.48;64.57;102787.91;1751381;79;21558;-81
2022/03/14 00:22:40;;;;;;;138.80;69.32;;;;;;;-1.48;64.73;102786.97;1746957;79;21120;-81
2022/03/14 00:25:08;;;;;;;121.10;62.30;;;;;;;-1.50;64.67;102784.59;1744897;79;21053;-81
2022/03/14 00:27:35;;;;;;;118.97;59.93;;;;;;;-1.51;64.79;102783.69;1746469;79;21065;-82
2022/03/14 00:30:08;;;;;;;161.15;75.97;;;;;;;-1.55;64.78;102785.42;1744495;79;21817;-82
2022/03/14 00:32:37;;;;;;;182.30;82.10;;;;;;;-1.56;64.91;102793.90;1726394;79;21956;-82
2022/03/14 00:35:05;;;;;;;159.48;73.55;;;;;;;-1.58;64.96;102792.83;1747968;79;21606;-82
2022/03/14 00:37:32;;;;;;;123.07;62.65;;;;;;;-1.60;65.03;102795.63;1747023;79;21732;-81
2022/03/14 00:39:59;;;;;;;119.00;61.50;;;;;;;-1.61;65.13;102796.01;1746462;80;21053;-82
2022/03/14 00:42:26;;;;;;;115.95;60.25;;;;;;;-1.61;65.14;102792.52;1745354;79;21743;-81
2022/03/14 00:44:53;;;;;;;119.53;58.60;;;;;;;-1.62;65.23;102793.26;1743308;81;21037;-81
2022/03/14 00:47:21;;;;;;;118.95;62.13;;;;;;;-1.65;65.22;102791.27;1746284;79;21053;-81
2022/03/14 00:49:47;;;;;;;113.97;57.62;;;;;;;-1.68;65.20;102792.23;1738258;80;21564;-81
2022/03/14 00:52:16;;;;;;;115.52;59.53;;;;;;;-1.70;65.29;102795.02;1746891;79;21108;-81
2022/03/14 00:54:43;;;;;;;117.57;60.38;;;;;;;-1.71;65.31;102796.14;1749204;79;21715;-81
2022/03/14 00:57:10;;;;;;;134.75;66.25;;;;;;;-1.74;65.39;102794.55;1747391;79;21098;-81
2022/03/14 00:59:39;;;;;;;124.33;64.75;;;;;;;-1.76;65.52;102795.67;1746056;79;21006;-81
2022/03/14 01:02:07;;;;;;;133.50;64.25;;;;;;;-1.78;65.53;102795.88;1743104;81;21015;-81
2022/03/14 01:04:33;;;;;;;120.30;61.55;;;;;;;-1.77;65.66;102802.86;1747268;79;21547;-81
2022/03/14 01:07:02;;;;;;;121.55;63.92;;;;;;;-1.76;65.73;102801.73;1738086;80;21734;-81
2022/03/14 01:09:30;;;;;;;109.27;58.85;;;;;;;-1.77;65.66;102805.44;1737577;82;21053;-81
2022/03/14 01:11:57;;;;;;;115.67;58.98;;;;;;;-1.83;65.64;102799.24;1732780;81;21042;-80
2022/03/14 01:14:25;;;;;;;108.72;57.73;;;;;;;-1.87;65.72;102800.95;1741989;81;21647;-81
2022/03/14 01:16:53;;;;;;;124.78;61.28;;;;;;;-1.90;65.79;102807.06;1730896;82;21682;-81
2022/03/14 01:19:20;;;;;;;118.67;60.73;;;;;;;-1.94;65.88;102801.04;1737275;82;21785;-81
2022/03/14 01:21:47;;;;;;;115.88;60.30;;;;;;;-1.93;66.00;102799.37;1737379;82;21065;-81
2022/03/14 01:24:19;;;;;;;118.28;60.52;;;;;;;-1.94;66.00;102806.20;1729778;81;21113;-81
2022/03/14 01:26:46;;;;;;;121.87;61.65;;;;;;;-1.96;66.00;102802.16;1733973;82;21850;-81
2022/03/14 01:29:14;;;;;;;117.85;60.33;;;;;;;-1.94;66.09;102805.30;1736880;82;21571;-80
2022/03/14 01:31:40;;;;;;;125.87;61.98;;;;;;;-1.94;66.08;102807.88;1738080;81;21770;-81
2022/03/14 01:34:08;;;;;;;124.22;59.50;;;;;;;-1.96;66.13;102802.55;1731357;81;21066;-82
2022/03/14 01:36:35;;;;;;;129.18;62.13;;;;;;;-1.96;66.17;102811.58;1744950;80;21058;-80
2022/03/14 01:39:01;;;;;;;123.70;61.37;;;;;;;-1.99;66.14;102811.23;1738345;82;21074;-80
2022/03/14 01:41:28;;;;;;;127.10;63.80;;;;;;;-2.00;66.28;102813.29;1739228;81;21010;-81
2022/03/14 01:43:55;;;;;;;131.22;64.87;;;;;;;-2.02;66.29;102807.05;1737855;81;21666;-81
2022/03/14 01:46:23;;;;;;;123.25;61.92;;;;;;;-2.03;66.36;102807.40;1738108;81;21852;-81
2022/03/14 01:48:51;;;;;;;117.37;60.28;;;;;;;-2.05;66.38;102815.73;1742035;80;21046;-81
2022/03/14 01:51:18;;;;;;;124.35;60.65;;;;;;;-2.07;66.42;102816.86;1741315;81;21313;-82
2022/03/14 01:53:45;;;;;;;124.82;61.83;;;;;;;-2.07;66.58;102815.95;1733688;81;21065;-81
2022/03/14 01:56:14;;;;;;;117.87;60.70;;;;;;;-2.08;66.56;102821.84;1734801;81;22444;-81
2022/03/14 01:58:41;;;;;;;123.10;61.02;;;;;;;-2.10;66.67;102824.28;1763914;79;21049;-81
2022/03/14 02:01:08;;;;;;;120.37;62.08;;;;;;;-2.12;66.65;102829.66;1729883;81;21098;-81
2022/03/14 02:03:35;;;;;;;123.45;60.20;;;;;;;-2.12;66.80;102822.27;1716349;82;21131;-82
2022/03/14 02:06:01;;;;;;;120.37;60.10;;;;;;;-2.13;66.78;102823.03;1730812;79;21004;-82
2022/03/14 02:08:28;;;;;;;113.28;58.73;;;;;;;-2.17;66.73;102826.55;1757479;80;21841;-82
2022/03/14 02:10:55;;;;;;;110.68;60.20;;;;;;;-2.20;66.71;102828.78;1769284;80;21316;-81
2022/03/14 02:13:23;;;;;;;114.92;60.80;;;;;;;-2.22;66.79;102831.58;1770194;80;21518;-81
2022/03/14 02:15:50;;;;;;;118.10;60.43;;;;;;;-2.24;66.84;102824.05;1761535;80;38759;-81
2022/03/14 02:18:17;;;;;;;109.48;57.17;;;;;;;-2.25;66.86;102824.81;1764998;80;21505;-82
2022/03/14 02:20:44;;;;;;;113.08;57.35;;;;;;;-2.26;66.95;102831.99;1762785;80;21788;-82
2022/03/14 02:23:11;;;;;;;111.88;57.40;;;;;;;-2.24;67.02;102833.45;1745523;81;21292;-82
2022/03/14 02:25:49;;;;;;;114.10;57.43;;;;;;;-2.26;67.00;102833.66;1770155;79;21049;-82
2022/03/14 02:28:20;;;;;;;105.58;55.05;;;;;;;-2.27;67.05;102835.34;1762742;80;21063;-82
2022/03/14 02:30:45;;;;;;;117.28;58.73;;;;;;;-2.28;67.07;102830.91;1774476;80;21041;-81
2022/03/14 02:33:12;;;;;;;110.72;53.48;;;;;;;-2.28;67.17;102832.20;1765524;80;21772;-82
2022/03/14 02:35:40;;;;;;;108.37;53.58;;;;;;;-2.27;67.26;102836.98;1763714;79;21053;-81
2022/03/14 02:38:14;;;;;;;113.40;54.83;;;;;;;-2.28;67.18;102841.23;1769908;80;21062;-82
2022/03/14 02:40:39;;;;;;;104.32;55.25;;;;;;;-2.29;67.19;102847.50;1760766;80;21046;-82
2022/03/14 02:43:06;;;;;;;117.30;56.63;;;;;;;-2.32;67.24;102840.36;1739227;80;21076;-82
2022/03/14 02:45:33;;;;;;;104.83;53.45;;;;;;;-2.34;67.27;102843.14;1753538;80;22532;-82
2022/03/14 02:48:00;;;;;;;96.90;51.10;;;;;;;-2.37;67.28;102841.13;1759348;79;21092;-81
2022/03/14 02:50:28;;;;;;;106.15;50.55;;;;;;;-2.38;67.37;102845.75;1768237;79;21256;-81
2022/03/14 02:52:55;;;;;;;106.30;53.25;;;;;;;-2.44;67.42;102824.80;1753424;80;21065;-82
2022/03/14 02:55:23;;;;;;;108.42;52.90;;;;;;;-2.37;67.38;102840.21;1762357;81;21621;-82
2022/03/14 02:57:53;;;;;;;94.65;51.75;;;;;;;-2.39;67.44;102843.00;1758436;80;21813;-81
2022/03/14 03:00:19;;;;;;;102.53;50.78;;;;;;;-2.41;67.54;102839.34;1764727;80;21054;-81
2022/03/14 03:02:46;;;;;;;104.10;52.70;;;;;;;-2.40;67.68;102847.63;1770904;80;21583;-82
2022/03/14 03:05:12;;;;;;;99.07;50.17;;;;;;;-2.40;67.67;102845.05;1769834;80;21057;-81
2022/03/14 03:07:39;;;;;;;98.62;51.83;;;;;;;-2.41;67.68;102845.78;1764838;79;21085;-81
2022/03/14 03:10:07;;;;;;;99.67;50.90;;;;;;;-2.43;67.67;102845.61;1776999;79;22624;-81
2022/03/14 03:12:37;;;;;;;97.02;50.45;;;;;;;-2.47;67.66;102853.76;1783690;79;21101;-81
2022/03/14 03:15:04;;;;;;;96.55;51.45;;;;;;;-2.49;67.59;102851.77;1771738;79;21123;-81
2022/03/14 03:17:30;;;;;;;91.78;50.78;;;;;;;-2.52;67.68;102853.61;1756267;78;21062;-81
2022/03/14 03:19:57;;;;;;;94.13;50.15;;;;;;;-2.56;67.70;102851.06;1789455;78;21063;-82
2022/03/14 03:22:27;;;;;;;102.80;48.58;;;;;;;-2.59;67.70;102857.19;1792416;78;21656;-81
2022/03/14 03:24:53;;;;;;;83.58;46.08;;;;;;;-2.60;67.83;102855.72;1763921;79;21598;-81
2022/03/14 03:27:20;;;;;;;89.92;46.65;;;;;;;-2.61;68.01;102858.69;1781095;79;21080;-81
2022/03/14 03:29:46;;;;;;;91.63;46.28;;;;;;;-2.62;68.08;102861.99;1763786;79;21733;-80
2022/03/14 03:32:13;;;;;;;94.25;46.63;;;;;;;-2.64;68.04;102862.58;1766981;79;21083;-81
2022/03/14 03:34:40;;;;;;;88.22;47.20;;;;;;;-2.66;68.17;102864.98;1753383;79;21686;-81
2022/03/14 03:37:06;;;;;;;86.87;43.63;;;;;;;-2.68;68.21;102865.18;1804743;77;21061;-81
2022/03/14 03:39:33;;;;;;;83.10;44.70;;;;;;;-2.67;68.28;102870.86;1779509;77;21103;-81
2022/03/14 03:41:59;;;;;;;82.60;44.15;;;;;;;-2.69;68.27;102867.58;1772796;79;21029;-81
2022/03/14 03:44:26;;;;;;;87.17;45.48;;;;;;;-2.71;68.26;102872.56;1794093;77;21073;-81
2022/03/14 03:46:52;;;;;;;88.60;44.40;;;;;;;-2.76;68.30;102872.41;1778620;79;21721;-81
2022/03/14 03:49:19;;;;;;;93.03;47.30;;;;;;;-2.76;68.37;102880.14;1771290;79;21057;-81
2022/03/14 03:51:46;;;;;;;81.42;42.50;;;;;;;-2.77;68.42;102875.75;1755278;79;21229;-81
2022/03/14 03:54:12;;;;;;;94.20;45.30;;;;;;;-2.79;68.46;102879.81;1771007;80;21060;-82
2022/03/14 03:56:39;;;;;;;79.17;43.63;;;;;;;-2.82;68.54;102875.21;1781227;79;21060;-81
2022/03/14 03:59:05;;;;;;;86.15;43.92;;;;;;;-2.81;68.58;102878.73;1778428;79;21850;-81
2022/03/14 04:01:32;;;;;;;85.20;44.65;;;;;;;-2.83;68.67;102878.93;1750452;80;21055;-82
2022/03/14 04:03:59;;;;;;;80.57;43.28;;;;;;;-2.83;68.67;102877.27;1770077;79;21633;-82
2022/03/14 04:06:28;;;;;;;86.90;44.83;;;;;;;-2.82;68.72;102875.21;1733497;80;21124;-80
2022/03/14 04:08:55;;;;;;;84.58;44.90;;;;;;;-2.99;68.71;102851.41;1753692;79;21581;-80
2022/03/14 04:11:22;;;;;;;86.10;44.23;;;;;;;-2.86;68.83;102875.61;1764854;80;21875;-81
2022/03/14 04:13:49;;;;;;;86.32;44.03;;;;;;;-2.88;68.87;102877.48;1773092;79;21089;-81
2022/03/14 04:16:18;;;;;;;78.90;41.77;;;;;;;-2.90;68.89;102878.59;1773783;78;21068;-81
2022/03/14 04:18:45;;;;;;;84.80;43.13;;;;;;;-2.91;68.93;102886.14;1770701;79;21064;-81
2022/03/14 04:21:14;;;;;;;80.07;41.70;;;;;;;-2.92;68.95;102892.06;1797016;77;21034;-81
2022/03/14 04:23:40;;;;;;;84.65;42.40;;;;;;;-2.92;69.02;102890.77;1780780;79;21858;-81
2022/03/14 04:26:07;;;;;;;82.02;42.62;;;;;;;-2.95;69.11;102885.82;1779534;79;21655;-81
2022/03/14 04:28:36;;;;;;;82.30;43.08;;;;;;;-2.96;69.12;102884.35;1769978;79;21077;-81
2022/03/14 04:31:04;;;;;;;76.75;40.63;;;;;;;-2.96;69.12;102890.41;1777988;79;21145;-81
2022/03/14 04:33:30;;;;;;;77.10;40.88;;;;;;;-2.95;69.11;102888.39;1775888;78;21064;-81
2022/03/14 04:35:57;;;;;;;91.90;44.77;;;;;;;-2.96;69.10;102894.66;1776976;79;21728;-81
2022/03/14 04:38:26;;;;;;;85.03;42.70;;;;;;;-2.96;69.53;102886.93;1782376;79;21591;-81
2022/03/14 04:40:53;;;;;;;90.60;45.98;;;;;;;-2.95;69.65;102885.82;1778144;79;21097;-81
2022/03/14 04:43:21;;;;;;;97.22;48.25;;;;;;;-2.95;69.76;102888.39;1775294;78;21651;-81
2022/03/14 04:45:48;;;;;;;89.42;45.20;;;;;;;-2.89;70.04;102893.67;1780152;79;21622;-80
2022/03/14 04:48:15;;;;;;;93.55;46.85;;;;;;;-2.86;70.17;102897.90;1775996;79;21857;-80
2022/03/14 04:50:42;;;;;;;89.77;44.75;;;;;;;-2.84;70.29;102899.89;1799277;78;21084;-80
2022/03/14 04:53:09;;;;;;;90.90;43.58;;;;;;;-2.83;70.39;102895.68;1795040;78;21138;-81
2022/03/14 04:55:36;;;;;;;90.05;43.55;;;;;;;-2.81;70.49;102901.55;1789102;78;21078;-81
2022/03/14 04:58:04;;;;;;;79.58;42.20;;;;;;;-2.80;70.47;102897.30;1750056;80;21116;-80
2022/03/14 05:00:32;;;;;;;85.83;43.55;;;;;;;-2.79;70.60;102896.19;1775061;79;21849;-83
2022/03/14 05:03:03;;;;;;;86.20;43.55;;;;;;;-2.78;70.71;102901.91;1768881;79;21645;-81
2022/03/14 05:05:30;;;;;;;89.15;45.88;;;;;;;-2.78;70.74;102899.33;1766397;80;21077;-81
2022/03/14 05:07:56;;;;;;;86.42;41.42;;;;;;;-2.77;70.85;102901.14;1794564;77;21426;-81
2022/03/14 05:10:23;;;;;;;95.40;43.23;;;;;;;-2.76;70.89;102902.99;1752777;78;21058;-82
2022/03/14 05:12:50;;;;;;;84.55;42.70;;;;;;;-2.73;70.94;102906.27;1753010;79;21780;-81
2022/03/14 05:15:17;;;;;;;77.85;40.75;;;;;;;-2.72;70.85;102905.89;1754626;80;21111;-81
2022/03/14 05:17:45;;;;;;;83.62;40.90;;;;;;;-2.68;70.97;102908.06;1751588;80;21088;-82
2022/03/14 05:20:12;;;;;;;78.40;40.80;;;;;;;-2.64;71.09;102905.11;1749237;79;21056;-86
2022/03/14 05:22:48;;;;;;;79.72;41.85;;;;;;;-2.59;71.05;102907.81;1744479;80;21099;-86
2022/03/14 05:25:14;;;;;;;70.08;38.08;;;;;;;-2.54;71.08;102907.58;1745436;80;21911;-85
2022/03/14 05:27:41;;;;;;;68.28;36.45;;;;;;;-2.47;71.11;102907.00;1741274;80;21061;-85
2022/03/14 05:30:08;;;;;;;72.05;38.80;;;;;;;-2.41;71.10;102906.39;1744708;80;21017;-85
2022/03/14 05:32:37;;;;;;;61.80;35.88;;;;;;;-2.36;71.15;102904.87;1745726;79;21681;-86
2022/03/14 05:35:04;;;;;;;64.12;35.45;;;;;;;-2.30;71.12;102909.80;1751102;79;21052;-83
2022/03/14 05:37:31;;;;;;;68.22;36.40;;;;;;;-2.25;71.13;102911.58;1747478;79;22774;-81
2022/03/14 05:39:57;;;;;;;65.42;37.83;;;;;;;-2.20;71.11;102911.73;1747105;81;21168;-85
2022/03/14 05:42:25;;;;;;;65.37;34.20;;;;;;;-2.17;71.05;102909.50;1749249;79;21065;-86
2022/03/14 05:44:54;;;;;;;66.62;35.05;;;;;;;-2.10;71.09;102913.66;1748017;81;21076;-91
2022/03/14 05:47:21;;;;;;;59.83;33.42;;;;;;;-2.05;71.04;102913.80;1725050;80;21033;-88
2022/03/14 05:49:48;;;;;;;61.23;34.73;;;;;;;-1.99;71.05;102921.86;1749026;81;22475;-87
2022/03/14 05:52:19;;;;;;;58.52;30.88;;;;;;;-1.93;70.99;102921.62;1744839;79;21057;-87
2022/03/14 05:54:43;;;;;;;63.83;32.30;;;;;;;-1.87;70.95;102917.12;1747819;79;21091;-87
2022/03/14 05:57:10;;;;;;;51.90;30.82;;;;;;;-1.83;70.84;102917.98;1736927;79;21091;-83
2022/03/14 05:59:37;;;;;;;57.27;30.95;;;;;;;-1.77;70.77;102916.06;1724156;80;21500;-83
2022/03/14 06:02:04;;;;;;;50.35;28.55;;;;;;;-1.73;70.70;102923.78;1743254;79;21761;-83
2022/03/14 06:04:30;;;;;;;59.63;32.90;;;;;;;-1.69;70.67;102929.84;1745704;79;21081;-83
2022/03/14 06:06:57;;;;;;;61.90;32.33;;;;;;;-1.64;70.64;102924.78;1745362;81;21069;-81
2022/03/14 06:09:28;;;;;;;59.20;33.85;;;;;;;-1.57;70.63;102926.00;1736446;80;21571;-80
2022/03/14 06:11:55;;;;;;;56.77;33.33;;;;;;;-1.51;70.55;102930.91;1732787;82;21097;-80
2022/03/14 06:14:21;;;;;;;61.10;34.63;;;;;;;-1.42;70.54;102934.87;1734187;82;22544;-81
2022/03/14 06:16:48;;;;;;;57.10;33.45;;;;;;;-1.35;70.55;102929.62;1734336;82;21114;-79
2022/03/14 06:19:15;;;;;;;56.02;32.30;;;;;;;-1.30;70.43;102931.02;1733313;81;21353;-80
2022/03/14 06:21:41;;;;;;;58.65;32.65;;;;;;;-1.22;70.38;102939.23;1731207;82;21295;-81
2022/03/14 06:24:11;;;;;;;59.73;31.90;;;;;;;-1.17;70.24;102941.01;1735807;82;21539;-75
2022/03/14 06:26:37;;;;;;;59.10;32.78;;;;;;;-1.13;70.20;102936.70;1734668;82;21732;-76
2022/03/14 06:29:04;;;;;;;60.90;33.10;;;;;;;-1.06;70.17;102943.07;1735004;81;21635;-76
2022/03/14 06:31:31;;;;;;;71.15;35.13;;;;;;;-0.99;70.23;102942.98;1731937;82;21084;-75
2022/03/14 06:33:58;;;;;;;73.30;37.05;;;;;;;-0.87;70.18;102950.20;1735914;81;21109;-75
2022/03/14 06:36:29;;;;;;;80.62;39.03;;;;;;;-0.81;69.99;102948.27;1725814;81;21080;-76
2022/03/14 06:38:59;;;;;;;69.22;35.70;;;;;;;-0.76;69.86;102957.44;1734994;81;21785;-75
2022/03/14 06:41:29;;;;;;;71.20;37.83;;;;;;;-0.74;69.75;102954.63;1735165;81;21101;-76
2022/03/14 06:43:57;;;;;;;69.42;38.83;;;;;;;-0.76;69.72;102947.09;1737351;81;21053;-75
2022/03/14 06:46:24;;;;;;;75.10;41.18;;;;;;;-0.65;69.74;102946.55;1734792;81;21063;-75
2022/03/14 06:48:50;;;;;;;82.72;44.10;;;;;;;-0.56;69.76;102952.14;1733020;81;21697;-75
2022/03/14 06:51:17;;;;;;;81.28;45.60;;;;;;;-0.48;69.74;102950.00;1730977;82;22712;-76
2022/03/14 06:53:44;;;;;;;80.72;41.30;;;;;;;-0.42;69.58;102954.12;1734656;82;21090;-75
2022/03/14 06:56:10;;;;;;;66.30;38.30;;;;;;;-0.37;69.47;102953.33;1733552;81;21077;-76
2022/03/14 07:01:08;;;;;;;73.72;37.58;;;;;;;-0.18;69.33;102943.60;1818240;76;22121;-75
2022/03/14 07:03:35;;;;;;;68.95;37.95;;;;;;;-0.15;69.21;102947.78;1790433;78;21595;-75
2022/03/14 07:06:02;;;;;;;76.82;39.40;;;;;;;-0.10;69.14;102946.59;1784513;78;21745;-75
2022/03/14 07:08:28;;;;;;;67.03;38.08;;;;;;;-0.05;69.12;102951.87;1734377;80;21535;-75
2022/03/14 07:10:55;;;;;;;75.95;41.23;;;;;;;-0.01;69.07;102942.37;1728345;80;21085;-76
2022/03/14 07:13:22;;;;;;;72.55;38.00;;;;;;;0.04;69.03;102942.82;1728465;80;21060;-76
2022/03/14 07:15:48;;;;;;;61.63;34.67;;;;;;;0.10;68.97;102946.06;1726898;80;21090;-75
2022/03/14 07:18:15;;;;;;;59.63;34.53;;;;;;;0.15;68.91;102949.66;1732651;81;21763;-75
2022/03/14 07:20:42;;;;;;;66.45;35.45;;;;;;;0.19;68.87;102945.32;1733001;80;21078;-76
2022/03/14 07:23:09;;;;;;;55.88;31.35;;;;;;;0.26;68.84;102946.84;1724807;81;21024;-76
2022/03/14 07:25:38;;;;;;;59.20;32.78;;;;;;;0.28;68.66;102938.87;1727646;80;21738;-76
2022/03/14 07:28:07;;;;;;;62.27;34.23;;;;;;;0.34;68.76;102941.17;1726016;80;21660;-75
2022/03/14 07:30:35;;;;;;;61.70;36.35;;;;;;;0.41;68.84;102937.12;1727023;82;21829;-76
2022/03/14 07:33:02;;;;;;;57.62;34.00;;;;;;;0.49;68.81;102941.78;1724151;81;21112;-76
2022/03/14 07:35:29;;;;;;;56.15;31.02;;;;;;;0.57;68.81;102943.48;1740664;80;21619;-76
2022/03/14 07:37:56;;;;;;;49.27;30.92;;;;;;;0.67;68.83;102938.84;1722580;81;22164;-76
2022/03/14 07:40:23;;;;;;;51.37;30.40;;;;;;;0.77;68.85;102945.10;1733903;81;21070;-76
2022/03/14 07:42:51;;;;;;;47.70;28.07;;;;;;;0.89;68.87;102954.86;1745123;81;21789;-75
2022/03/14 07:45:20;;;;;;;47.55;27.48;;;;;;;0.97;68.74;102944.46;1756923;80;21180;-76
2022/03/14 07:47:47;;;;;;;48.15;28.45;;;;;;;1.05;68.61;102941.72;1747901;80;21527;-76
2022/03/14 07:50:15;;;;;;;51.35;28.23;;;;;;;1.13;68.55;102938.22;1735499;80;21090;-76
2022/03/14 07:52:42;;;;;;;50.78;29.65;;;;;;;1.21;68.42;102946.36;1739244;80;21050;-75
2022/03/14 07:55:09;;;;;;;44.88;26.52;;;;;;;1.29;68.43;102934.13;1735825;80;21821;-76
2022/03/14 07:57:36;;;;;;;46.00;26.17;;;;;;;1.40;68.27;102937.78;1735885;80;21066;-76
2022/03/14 08:00:13;;;;;;;38.95;25.25;;;;;;;1.47;67.98;102938.52;1738688;80;21118;-76
2022/03/14 08:02:40;;;;;;;39.58;24.05;;;;;;;1.53;67.78;102937.80;1732636;80;21133;-76
2022/03/14 08:05:08;;;;;;;49.95;28.25;;;;;;;1.61;67.71;102932.05;1734213;81;21086;-76
2022/03/14 08:07:34;;;;;;;44.42;27.15;;;;;;;1.65;67.50;102931.61;1744027;80;22543;-76
2022/03/14 08:10:04;;;;;;;43.55;25.32;;;;;;;1.73;67.45;102928.45;1741539;81;21643;-75
2022/03/14 08:12:33;;;;;;;44.67;27.93;;;;;;;1.79;67.24;102930.31;1733513;81;21136;-75
2022/03/14 08:14:59;;;;;;;43.95;26.97;;;;;;;1.84;67.30;102931.68;1723866;80;21059;-75
2022/03/14 08:17:26;;;;;;;39.13;26.57;;;;;;;1.96;67.28;102921.53;1739802;80;21830;-75
2022/03/14 08:19:53;;;;;;;45.35;26.60;;;;;;;2.06;67.18;102928.11;1734805;80;21766;-76
2022/03/14 08:22:19;;;;;;;43.73;28.50;;;;;;;2.14;66.99;102919.38;1741669;81;21102;-77
2022/03/14 08:24:46;;;;;;;44.00;27.00;;;;;;;2.20;66.76;102922.93;1742177;81;21070;-76
2022/03/14 08:27:12;;;;;;;47.25;27.98;;;;;;;2.20;66.57;102915.13;1743706;81;21577;-75
2022/03/14 08:29:39;;;;;;;46.15;26.40;;;;;;;2.22;66.37;102915.28;1752842;81;21074;-75
2022/03/14 08:32:08;;;;;;;53.75;32.05;;;;;;;2.26;66.47;102918.30;1743597;80;21822;-76
2022/03/14 08:34:34;;;;;;;41.95;25.88;;;;;;;2.33;66.45;102912.91;1727886;81;21059;-75
2022/03/14 08:37:01;;;;;;;44.00;25.88;;;;;;;2.38;66.21;102912.02;1721383;81;21074;-75
2022/03/14 08:39:31;;;;;;;41.98;26.30;;;;;;;2.38;66.05;102908.12;1742645;81;21663;-75
2022/03/14 08:41:56;;;;;;;38.48;25.65;;;;;;;2.40;66.03;102901.77;1726573;80;21102;-76
2022/03/14 08:44:22;;;;;;;44.53;28.10;;;;;;;2.45;66.06;102904.02;1735374;80;21802;-76
2022/03/14 08:46:49;;;;;;;44.00;28.92;;;;;;;2.49;65.89;102898.72;1726151;80;21787;-75
2022/03/14 08:49:16;;;;;;;43.85;27.67;;;;;;;2.52;65.86;102905.52;1717133;80;21050;-75
2022/03/14 08:51:42;;;;;;;46.98;27.42;;;;;;;2.57;65.80;102908.52;1723666;81;21090;-76
2022/03/14 08:54:09;;;;;;;44.77;27.75;;;;;;;2.57;65.75;102905.53;1740596;80;21142;-76
2022/03/14 08:56:37;;;;;;;39.27;26.00;;;;;;;2.64;65.89;102903.12;1732770;80;21638;-76
2022/03/14 08:59:04;;;;;;;40.05;26.48;;;;;;;2.72;65.75;102909.92;1750616;80;21035;-76
2022/03/14 09:01:32;;;;;;;47.15;28.62;;;;;;;2.76;65.49;102907.22;1737978;80;21070;-76
2022/03/14 09:03:59;;;;;;;45.58;28.87;;;;;;;2.79;65.42;102902.30;1723798;80;21086;-76
2022/03/14 09:06:27;;;;;;;41.35;27.48;;;;;;;2.84;65.41;102900.65;1731804;80;21613;-76
2022/03/14 09:08:54;;;;;;;50.35;29.95;;;;;;;2.90;65.28;102901.20;1727205;81;21828;-76
2022/03/14 09:11:20;;;;;;;43.50;27.42;;;;;;;2.97;65.31;102897.87;1717758;80;21713;-77
2022/03/14 09:13:47;;;;;;;42.85;26.55;;;;;;;3.01;65.05;102896.06;1725495;80;21108;-76
2022/03/14 09:16:13;;;;;;;46.20;28.73;;;;;;;3.05;65.04;102889.05;1720177;80;21089;-78
2022/03/14 09:18:40;;;;;;;42.48;28.05;;;;;;;3.14;65.13;102891.58;1719351;81;22106;-77
2022/03/14 09:21:07;;;;;;;42.00;27.37;;;;;;;3.24;65.10;102888.61;1718376;80;21729;-76
2022/03/14 09:23:34;;;;;;;42.10;26.40;;;;;;;3.32;64.96;102882.78;1737331;81;21656;-76
2022/03/14 09:26:00;;;;;;;50.12;27.50;;;;;;;3.41;64.82;102881.39;1740046;80;21050;-76
2022/03/14 09:28:27;;;;;;;42.67;27.37;;;;;;;3.49;64.85;102881.66;1714954;81;21074;-76
2022/03/14 09:30:53;;;;;;;41.68;27.73;;;;;;;3.62;64.85;102880.69;1716182;80;21719;-76
2022/03/14 09:33:21;;;;;;;50.00;30.12;;;;;;;3.74;64.63;102882.53;1718209;81;21747;-76
2022/03/14 09:35:48;;;;;;;50.40;30.68;;;;;;;3.83;64.48;102876.78;1724721;80;21719;-76
2022/03/14 09:38:16;;;;;;;44.77;27.20;;;;;;;3.94;64.37;102881.63;1724521;80;21063;-76
2022/03/14 09:40:45;;;;;;;43.17;26.52;;;;;;;3.99;64.12;102872.12;1737987;80;21541;-76
2022/03/14 09:43:14;;;;;;;41.83;27.75;;;;;;;4.05;63.97;102874.34;1742023;79;21518;-76
2022/03/14 09:45:41;;;;;;;43.55;26.35;;;;;;;4.10;63.87;102876.95;1714251;80;21823;-76
2022/03/14 09:48:08;;;;;;;37.60;25.40;;;;;;;4.16;63.64;102875.26;1714311;80;21079;-76
2022/03/14 09:50:44;;;;;;;38.75;25.05;;;;;;;4.18;63.45;102873.29;1730818;80;21129;-76
2022/03/14 09:53:13;;;;;;;41.92;27.62;;;;;;;4.23;63.40;102868.09;1714086;81;21066;-76
2022/03/14 09:55:42;;;;;;;39.92;27.35;;;;;;;4.35;63.39;102872.11;1734361;80;21169;-76
2022/03/14 09:58:14;;;;;;;42.85;27.20;;;;;;;4.44;63.16;102871.58;1716536;80;21804;-76
2022/03/14 10:00:42;;;;;;;44.03;28.42;;;;;;;4.51;63.02;102864.30;1721275;80;21081;-76
2022/03/14 10:03:09;;;;;;;40.15;25.80;;;;;;;4.57;62.83;102867.41;1740863;80;21073;-76
2022/03/14 10:05:36;;;;;;;39.25;26.23;;;;;;;4.64;62.85;102864.13;1729337;80;21141;-76
2022/03/14 10:08:03;;;;;;;36.85;24.02;;;;;;;4.76;62.78;102856.39;1706407;81;21073;-76
2022/03/14 10:10:29;;;;;;;40.90;27.22;;;;;;;4.85;62.54;102851.03;1722495;80;21767;-76
2022/03/14 10:12:57;;;;;;;43.58;27.15;;;;;;;4.94;62.41;102849.58;1740372;80;21119;-76
2022/03/14 10:15:25;;;;;;;37.98;25.48;;;;;;;5.04;62.20;102849.52;1708156;81;21064;-76
2022/03/14 10:17:54;;;;;;;46.77;27.95;;;;;;;5.11;61.95;102845.72;1734323;80;21144;-76
2022/03/14 10:20:22;;;;;;;44.50;26.60;;;;;;;5.18;61.84;102848.95;1707593;81;21104;-76
2022/03/14 10:22:49;;;;;;;38.25;25.48;;;;;;;5.28;61.77;102847.08;1734815;80;21769;-76
2022/03/14 10:25:18;;;;;;;59.70;39.10;;;;;;;5.40;61.54;102846.73;1709709;81;21093;-76
2022/03/14 10:27:55;;;;;;;37.67;26.25;;;;;;;5.49;61.49;102847.47;1718658;80;21154;-76
2022/03/14 10:30:33;;;;;;;36.20;24.57;;;;;;;5.61;61.23;102838.00;1716142;82;21154;-76
2022/03/14 10:33:09;;;;;;;41.58;27.48;;;;;;;5.76;60.88;102839.59;1732186;81;21122;-76
2022/03/14 10:35:38;;;;;;;42.45;25.12;;;;;;;5.89;60.71;102837.92;1719118;81;22925;-76
2022/03/14 10:38:08;;;;;;;37.30;25.62;;;;;;;6.01;60.29;102838.52;1702249;80;21067;-76
2022/03/14 10:40:40;;;;;;;36.98;23.40;;;;;;;6.13;59.96;102837.63;1735924;80;21062;-76
2022/03/14 10:43:32;;;;;;;34.70;23.20;;;;;;;6.22;59.87;102833.11;1743561;80;21047;-75
2022/03/14 10:46:00;;;;;;;39.23;24.45;;;;;;;6.34;59.50;102835.73;1725331;81;21050;-75
2022/03/14 10:48:39;;;;;;;37.00;24.15;;;;;;;6.40;59.25;102825.34;1726414;81;21764;-76
2022/03/14 10:51:11;;;;;;;38.25;23.60;;;;;;;6.46;58.88;102826.20;1719335;81;21078;-76
2022/03/14 10:53:43;;;;;;;35.78;23.80;;;;;;;6.50;58.67;102820.80;1720909;81;22314;-75
2022/03/14 10:56:10;;;;;;;38.17;24.35;;;;;;;6.53;58.36;102821.02;1725185;81;21086;-76
2022/03/14 10:58:38;;;;;;;40.73;25.97;;;;;;;6.58;58.32;102816.64;1727618;81;21075;-76
2022/03/14 11:01:09;;;;;;;41.68;26.77;;;;;;;6.66;58.25;102819.81;1749020;81;21761;-76
2022/03/14 11:03:41;;;;;;;35.60;24.37;;;;;;;6.73;58.17;102817.27;1725752;80;21070;-76
2022/03/14 11:06:10;;;;;;;41.10;26.85;;;;;;;6.80;58.00;102809.98;1729584;82;21118;-76
2022/03/14 11:08:47;;;;;;;32.80;22.93;;;;;;;6.90;57.78;102806.73;1713953;82;21408;-75
2022/03/14 11:11:21;;;;;;;36.68;23.30;;;;;;;6.97;57.52;102803.35;1719860;81;21608;-76
2022/03/14 11:13:52;;;;;;;28.67;20.43;;;;;;;7.08;57.44;102801.52;1737689;81;22465;-75